createdAt,value
2018-05-27T00:00:16.647Z,14.50
2018-05-27T00:02:44.126Z,14.50
2018-05-27T00:05:11.587Z,14.50
2018-05-27T00:07:39.039Z,14.50
2018-05-27T00:10:06.496Z,14.40
2018-05-27T00:12:33.952Z,14.30
2018-05-27T00:15:01.420Z,14.40
2018-05-27T00:17:28.921Z,14.40
2018-05-27T00:19:56.372Z,14.40
2018-05-27T00:22:23.833Z,14.40
2018-05-27T00:24:51.296Z,14.30
2018-05-27T00:27:18.752Z,14.30
2018-05-27T00:29:46.221Z,14.30
2018-05-27T00:32:13.673Z,14.30
2018-05-27T00:34:41.126Z,14.30
2018-05-27T00:37:08.581Z,14.30
2018-05-27T00:39:36.043Z,14.30
2018-05-27T00:42:03.481Z,14.30
2018-05-27T00:44:30.936Z,14.30
2018-05-27T00:46:58.383Z,14.30
2018-05-27T00:49:25.852Z,14.30
2018-05-27T00:51:53.294Z,14.30
2018-05-27T00:54:21.520Z,14.20
2018-05-27T00:56:48.975Z,14.20
2018-05-27T00:59:16.455Z,14.20
2018-05-27T01:01:43.906Z,14.20
2018-05-27T01:04:11.387Z,14.20
2018-05-27T01:06:39.600Z,14.30
2018-05-27T01:09:07.070Z,14.20
2018-05-27T01:11:34.519Z,14.20
2018-05-27T01:14:01.971Z,14.20
2018-05-27T01:16:29.429Z,14.20
2018-05-27T01:18:56.900Z,14.20
2018-05-27T01:21:27.386Z,14.10
2018-05-27T01:23:54.847Z,14.00
2018-05-27T01:26:22.299Z,13.90
2018-05-27T01:28:50.519Z,14.00
2018-05-27T01:31:17.981Z,14.00
2018-05-27T01:33:45.442Z,14.00
2018-05-27T01:36:12.896Z,14.00
2018-05-27T01:38:40.363Z,14.00
2018-05-27T01:41:07.813Z,13.90
2018-05-27T01:43:35.284Z,13.90
2018-05-27T01:46:02.770Z,13.80
2018-05-27T01:48:31.000Z,13.70
2018-05-27T01:51:01.902Z,13.70
2018-05-27T01:53:29.372Z,13.70
2018-05-27T01:55:56.829Z,13.70
2018-05-27T01:58:24.296Z,13.70
2018-05-27T02:00:51.746Z,13.60
2018-05-27T02:03:19.202Z,13.60
2018-05-27T02:05:46.670Z,13.60
2018-05-27T02:08:14.141Z,13.60
2018-05-27T02:10:41.591Z,13.60
2018-05-27T02:13:09.061Z,13.60
2018-05-27T02:15:36.524Z,13.60
2018-05-27T02:18:03.982Z,13.60
2018-05-27T02:20:31.458Z,13.50
2018-05-27T02:22:59.681Z,13.50
2018-05-27T02:25:27.141Z,13.50
2018-05-27T02:27:54.608Z,13.50
2018-05-27T02:30:22.116Z,13.50
2018-05-27T02:32:50.336Z,13.50
2018-05-27T02:35:17.812Z,13.40
2018-05-27T02:37:45.268Z,13.50
2018-05-27T02:40:12.725Z,13.40
2018-05-27T02:42:40.183Z,13.50
2018-05-27T02:45:07.634Z,13.40
2018-05-27T02:47:35.094Z,13.40
2018-05-27T02:50:02.552Z,13.40
2018-05-27T02:52:30.005Z,13.40
2018-05-27T02:54:57.476Z,13.40
2018-05-27T02:57:24.943Z,13.40
2018-05-27T02:59:52.413Z,13.30
2018-05-27T03:02:20.636Z,13.30
2018-05-27T03:04:48.095Z,13.30
2018-05-27T03:07:15.548Z,13.20
2018-05-27T03:09:43.002Z,13.20
2018-05-27T03:12:10.459Z,13.10
2018-05-27T03:14:37.912Z,13.20
2018-05-27T03:17:05.356Z,13.20
2018-05-27T03:19:32.811Z,13.10
2018-05-27T03:22:00.259Z,13.10
2018-05-27T03:24:28.499Z,13.10
2018-05-27T03:26:55.944Z,13.00
2018-05-27T03:29:23.415Z,13.00
2018-05-27T03:31:50.871Z,13.00
2018-05-27T03:34:18.339Z,13.00
2018-05-27T03:36:46.556Z,12.90
2018-05-27T03:39:14.017Z,12.90
2018-05-27T03:41:41.487Z,12.90
2018-05-27T03:44:08.963Z,12.80
2018-05-27T03:46:36.418Z,12.90
2018-05-27T03:49:03.890Z,12.90
2018-05-27T03:51:31.352Z,12.90
2018-05-27T03:53:58.840Z,13.00
2018-05-27T03:56:26.312Z,12.90
2018-05-27T03:58:53.792Z,12.90
2018-05-27T04:01:21.279Z,13.00
2018-05-27T04:04:01.474Z,12.90
2018-05-27T04:06:40.856Z,12.90
2018-05-27T04:09:08.331Z,12.90
2018-05-27T04:11:35.795Z,13.00
2018-05-27T04:14:04.034Z,13.10
2018-05-27T04:16:31.531Z,13.00
2018-05-27T04:18:59.749Z,13.10
2018-05-27T04:21:27.212Z,13.10
2018-05-27T04:23:54.708Z,13.10
2018-05-27T04:26:22.184Z,13.20
2018-05-27T04:28:50.389Z,13.30
2018-05-27T04:31:17.854Z,13.30
2018-05-27T04:33:46.059Z,13.50
2018-05-27T04:36:13.522Z,13.50
2018-05-27T04:38:40.982Z,13.50
2018-05-27T04:41:08.444Z,13.60
2018-05-27T04:43:35.895Z,13.80
2018-05-27T04:46:03.356Z,13.90
2018-05-27T04:48:30.803Z,14.00
2018-05-27T04:50:58.277Z,14.10
2018-05-27T04:53:25.738Z,14.20
2018-05-27T04:55:53.205Z,14.40
2018-05-27T04:58:21.437Z,14.60
2018-05-27T05:00:48.998Z,14.60
2018-05-27T05:03:16.460Z,14.80
2018-05-27T05:05:43.914Z,14.90
2018-05-27T05:08:11.363Z,15.00
2018-05-27T05:10:38.830Z,15.10
2018-05-27T05:13:06.283Z,15.20
2018-05-27T05:15:33.744Z,15.30
2018-05-27T05:18:01.215Z,15.40
2018-05-27T05:20:28.680Z,15.60
2018-05-27T05:22:56.130Z,15.70
2018-05-27T05:25:23.596Z,15.90
2018-05-27T05:27:51.040Z,16.00
2018-05-27T05:30:18.496Z,16.20
2018-05-27T05:32:45.941Z,16.30
2018-05-27T05:35:13.407Z,16.40
2018-05-27T05:37:40.917Z,16.60
2018-05-27T05:40:08.373Z,16.70
2018-05-27T05:42:35.855Z,16.80
2018-05-27T05:45:03.331Z,16.90
2018-05-27T05:47:30.845Z,17.00
2018-05-27T05:49:58.327Z,17.20
2018-05-27T05:52:25.792Z,17.30
2018-05-27T05:54:53.258Z,17.30
2018-05-27T05:57:21.561Z,17.50
2018-05-27T05:59:49.023Z,17.70
2018-05-27T06:02:16.490Z,17.70
2018-05-27T06:04:44.729Z,17.90
2018-05-27T06:07:12.203Z,17.90
2018-05-27T06:09:39.667Z,18.10
2018-05-27T06:12:07.138Z,18.10
2018-05-27T06:14:35.370Z,18.40
2018-05-27T06:17:02.839Z,18.40
2018-05-27T06:19:30.300Z,18.50
2018-05-27T06:21:57.766Z,18.50
2018-05-27T06:24:25.222Z,18.70
2018-05-27T06:26:52.684Z,18.80
2018-05-27T06:29:21.128Z,18.90
2018-05-27T06:31:51.421Z,19.00
2018-05-27T06:37:12.511Z,19.40
2018-05-27T06:39:41.798Z,19.70
2018-05-27T06:42:16.082Z,19.70
2018-05-27T06:44:43.623Z,19.90
2018-05-27T06:50:15.585Z,20.30
2018-05-27T06:52:43.854Z,20.70
2018-05-27T06:55:17.098Z,20.70
2018-05-27T06:57:44.563Z,20.90
2018-05-27T07:00:12.074Z,21.00
2018-05-27T07:02:40.313Z,21.60
2018-05-27T07:05:07.772Z,21.60
2018-05-27T07:07:35.267Z,21.80
2018-05-27T07:10:03.582Z,22.30
2018-05-27T07:12:31.079Z,22.20
2018-05-27T07:14:58.529Z,22.20
2018-05-27T07:17:25.995Z,22.40
2018-05-27T07:19:53.440Z,22.50
2018-05-27T07:22:20.895Z,22.70
2018-05-27T07:24:48.399Z,22.90
2018-05-27T07:27:16.045Z,23.20
2018-05-27T07:29:43.549Z,23.40
2018-05-27T07:32:11.081Z,23.70
2018-05-27T07:34:39.289Z,23.90
2018-05-27T07:37:07.072Z,23.90
2018-05-27T07:39:36.281Z,24.50
2018-05-27T07:42:03.801Z,24.50
2018-05-27T07:44:32.084Z,25.60
2018-05-27T07:46:59.588Z,25.50
2018-05-27T07:49:27.862Z,26.50
2018-05-27T07:51:55.401Z,26.40
2018-05-27T07:54:22.983Z,26.20
2018-05-27T07:56:51.264Z,26.90
2018-05-27T07:59:19.515Z,27.00
2018-05-27T08:01:46.997Z,27.00
2018-05-27T08:04:15.240Z,27.70
2018-05-27T08:06:42.736Z,27.70
2018-05-27T08:58:54.043Z,28.00
2018-05-27T09:01:22.305Z,28.70
2018-05-27T09:03:49.766Z,28.70
2018-05-27T09:06:17.273Z,29.90
2018-05-27T09:08:44.735Z,30.50
2018-05-27T09:11:12.187Z,31.50
2018-05-27T09:13:39.660Z,33.00
2018-05-27T09:16:07.143Z,33.40
2018-05-27T09:18:34.632Z,34.50
2018-05-27T09:21:02.101Z,35.00
2018-05-27T09:23:29.588Z,35.30
2018-05-27T09:25:57.040Z,32.90
2018-05-27T09:28:24.601Z,33.50
2018-05-27T09:30:52.123Z,33.90
2018-05-27T09:33:20.360Z,32.00
2018-05-27T09:35:47.858Z,31.90
2018-05-27T09:38:15.345Z,31.10
2018-05-27T09:40:42.810Z,31.20
2018-05-27T09:43:10.279Z,31.80
2018-05-27T09:45:37.755Z,31.80
2018-05-27T09:48:05.269Z,32.00
2018-05-27T09:50:32.916Z,32.20
2018-05-27T09:53:01.105Z,33.20
2018-05-27T09:55:28.565Z,33.60
2018-05-27T09:57:56.060Z,34.70
2018-05-27T10:00:23.515Z,35.50
2018-05-27T10:02:50.984Z,35.50
2018-05-27T10:05:19.310Z,35.40
2018-05-27T10:07:50.572Z,35.40
2018-05-27T10:10:18.072Z,35.70
2018-05-27T10:12:46.372Z,35.30
2018-05-27T10:15:14.080Z,35.30
2018-05-27T10:17:41.645Z,34.90
2018-05-27T10:20:09.188Z,34.70
2018-05-27T10:22:36.689Z,33.90
2018-05-27T10:25:05.374Z,33.00
2018-05-27T10:27:32.947Z,32.90
2018-05-27T10:30:00.423Z,32.50
2018-05-27T10:32:27.909Z,32.30
2018-05-27T10:34:55.368Z,32.30
2018-05-27T10:37:22.819Z,31.20
2018-05-27T10:39:50.289Z,31.50
2018-05-27T10:42:17.754Z,32.10
2018-05-27T10:44:45.220Z,31.50
2018-05-27T10:47:12.664Z,31.40
2018-05-27T10:49:40.135Z,31.50
2018-05-27T10:52:07.612Z,31.30
2018-05-27T10:54:35.843Z,30.90
2018-05-27T10:57:03.301Z,30.90
2018-05-27T10:59:30.776Z,29.90
2018-05-27T11:01:58.242Z,31.30
2018-05-27T11:04:25.720Z,32.80
2018-05-27T11:06:53.976Z,34.60
2018-05-27T11:09:21.437Z,34.50
2018-05-27T11:11:48.897Z,34.30
2018-05-27T11:14:17.148Z,33.80
2018-05-27T11:16:44.687Z,33.80
2018-05-27T11:19:12.136Z,33.70
2018-05-27T11:21:40.366Z,33.20
2018-05-27T11:24:08.607Z,33.60
2018-05-27T11:26:36.097Z,33.60
2018-05-27T11:29:04.321Z,32.70
2018-05-27T11:31:32.839Z,32.70
2018-05-27T11:34:00.572Z,34.30
2018-05-27T11:36:28.619Z,35.20
2018-05-27T11:38:56.221Z,35.90
2018-05-27T11:41:24.052Z,36.30
2018-05-27T11:43:51.696Z,34.10
2018-05-27T11:46:20.518Z,33.20
2018-05-27T11:48:50.257Z,33.90
2018-05-27T11:51:20.389Z,33.80
2018-05-27T11:53:48.093Z,35.20
2018-05-27T11:56:17.391Z,33.50
2018-05-27T11:58:45.214Z,33.50
2018-05-27T12:01:14.830Z,34.30
2018-05-27T12:03:42.435Z,34.60
2018-05-27T12:06:10.021Z,35.30
2018-05-27T12:08:38.335Z,36.30
2018-05-27T12:11:06.583Z,36.00
2018-05-27T12:13:34.050Z,35.90
2018-05-27T12:16:01.639Z,35.90
2018-05-27T12:18:29.204Z,35.00
2018-05-27T12:20:56.681Z,34.30
2018-05-27T12:23:24.936Z,35.10
2018-05-27T12:25:52.410Z,35.00
2018-05-27T12:28:19.857Z,35.30
2018-05-27T12:30:47.334Z,35.40
2018-05-27T12:33:14.791Z,35.50
2018-05-27T12:35:42.947Z,35.60
2018-05-27T12:38:10.556Z,35.50
2018-05-27T12:40:38.181Z,34.50
2018-05-27T12:43:06.781Z,33.40
2018-05-27T12:45:34.520Z,33.40
2018-05-27T12:48:03.713Z,33.70
2018-05-27T12:50:31.615Z,34.50
2018-05-27T12:52:59.917Z,33.90
2018-05-27T12:55:27.517Z,33.90
2018-05-27T12:57:55.067Z,34.30
2018-05-27T13:00:22.529Z,33.70
2018-05-27T13:02:50.032Z,33.30
2018-05-27T13:05:17.790Z,33.00
2018-05-27T13:07:45.364Z,32.40
2018-05-27T13:10:13.330Z,31.70
2018-05-27T13:12:41.664Z,31.20
2018-05-27T13:15:09.443Z,31.20
2018-05-27T13:17:37.831Z,32.50
2018-05-27T13:20:05.299Z,32.50
2018-05-27T13:22:32.792Z,32.60
2018-05-27T13:25:01.027Z,32.40
2018-05-27T13:27:28.591Z,32.30
2018-05-27T13:29:56.711Z,31.70
2018-05-27T13:32:26.126Z,31.40
2018-05-27T13:34:53.904Z,30.90
2018-05-27T13:37:21.971Z,31.40
2018-05-27T13:39:51.197Z,32.90
2018-05-27T13:42:19.828Z,33.60
2018-05-27T13:44:47.623Z,33.60
2018-05-27T13:47:15.397Z,34.40
2018-05-27T13:49:43.465Z,35.80
2018-05-27T13:52:11.097Z,35.50
2018-05-27T13:54:39.350Z,35.30
2018-05-27T13:57:06.829Z,35.30
2018-05-27T13:59:35.965Z,34.90
2018-05-27T14:02:03.798Z,34.90
2018-05-27T14:04:31.386Z,33.90
2018-05-27T14:06:59.173Z,33.10
2018-05-27T14:09:26.778Z,32.70
2018-05-27T14:11:54.549Z,32.20
2018-05-27T14:14:22.040Z,31.00
2018-05-27T14:16:50.624Z,30.60
2018-05-27T14:19:18.858Z,30.50
2018-05-27T14:21:47.897Z,31.00
2018-05-27T14:24:15.891Z,30.30
2018-05-27T14:26:43.602Z,30.10
2018-05-27T14:29:12.384Z,30.40
2018-05-27T14:31:42.161Z,30.40
2018-05-27T14:34:09.729Z,30.50
2018-05-27T14:36:38.173Z,30.70
2018-05-27T14:39:07.173Z,31.10
2018-05-27T14:41:35.096Z,31.10
2018-05-27T14:44:02.580Z,31.10
2018-05-27T14:46:30.181Z,30.70
2018-05-27T14:48:58.188Z,31.00
2018-05-27T14:51:26.581Z,31.40
2018-05-27T14:53:54.219Z,31.40
2018-05-27T14:56:22.461Z,30.50
2018-05-27T14:58:50.039Z,30.60
2018-05-27T15:01:19.459Z,30.20
2018-05-27T15:03:47.429Z,30.20
2018-05-27T15:06:14.976Z,29.80
2018-05-27T15:08:43.476Z,29.10
2018-05-27T15:11:11.093Z,29.10
2018-05-27T15:13:39.028Z,29.10
2018-05-27T15:16:06.704Z,28.80
2018-05-27T15:18:34.760Z,28.80
2018-05-27T15:21:02.355Z,28.70
2018-05-27T15:23:29.889Z,28.20
2018-05-27T15:25:57.360Z,28.00
2018-05-27T15:28:25.864Z,27.90
2018-05-27T15:30:54.392Z,27.50
2018-05-27T15:33:21.867Z,27.50
2018-05-27T15:35:49.367Z,27.50
2018-05-27T15:38:16.884Z,27.30
2018-05-27T15:40:44.364Z,27.20
2018-05-27T15:43:13.358Z,27.40
2018-05-27T15:45:40.880Z,27.40
2018-05-27T15:51:14.642Z,27.40
2018-05-27T15:53:42.144Z,27.20
2018-05-27T15:56:09.631Z,27.40
2018-05-27T15:58:37.123Z,27.60
2018-05-27T16:01:04.624Z,27.40
2018-05-27T16:03:32.103Z,27.50
2018-05-27T16:05:59.639Z,27.70
2018-05-27T16:08:27.195Z,27.90
2018-05-27T16:10:54.695Z,28.00
2018-05-27T16:13:22.187Z,28.10
2018-05-27T16:15:50.446Z,27.80
2018-05-27T16:18:18.735Z,27.80
2018-05-27T16:20:47.989Z,27.60
2018-05-27T16:23:15.529Z,27.70
2018-05-27T16:25:43.033Z,27.70
2018-05-27T16:28:10.672Z,27.90
2018-05-27T16:30:38.193Z,28.00
2018-05-27T16:33:05.660Z,27.90
2018-05-27T16:35:33.125Z,27.90
2018-05-27T16:38:00.610Z,28.00
2018-05-27T16:40:28.084Z,27.90
2018-05-27T16:42:55.561Z,27.90
2018-05-27T16:45:23.798Z,27.20
2018-05-27T16:47:51.282Z,27.20
2018-05-27T16:50:19.814Z,27.00
2018-05-27T16:52:47.530Z,26.90
2018-05-27T16:55:14.986Z,26.80
2018-05-27T16:57:43.265Z,27.20
2018-05-27T17:00:11.857Z,27.30
2018-05-27T17:02:39.306Z,27.20
2018-05-27T17:05:07.548Z,27.30
2018-05-27T17:07:35.018Z,27.30
2018-05-27T17:10:02.501Z,27.10
2018-05-27T17:12:30.787Z,26.80
2018-05-27T17:14:58.295Z,26.80
2018-05-27T17:17:25.814Z,26.70
2018-05-27T17:19:53.289Z,26.30
2018-05-27T17:22:20.785Z,26.10
2018-05-27T17:24:55.292Z,26.00
2018-05-27T17:27:23.079Z,26.00
2018-05-27T17:29:50.569Z,26.10
2018-05-27T17:32:18.048Z,26.00
2018-05-27T17:34:45.532Z,26.00
2018-05-27T17:37:13.040Z,25.90
2018-05-27T17:39:40.526Z,25.80
2018-05-27T17:42:07.986Z,25.70
2018-05-27T17:44:36.230Z,25.70
2018-05-27T17:47:04.502Z,25.80
2018-05-27T17:49:32.057Z,25.70
2018-05-27T17:52:00.323Z,25.30
2018-05-27T17:54:28.590Z,25.10
2018-05-27T17:56:56.054Z,25.10
2018-05-27T17:59:24.302Z,25.10
2018-05-27T18:01:51.781Z,25.00
2018-05-27T18:04:19.320Z,24.90
2018-05-27T18:06:48.889Z,24.80
2018-05-27T18:09:16.341Z,24.70
2018-05-27T18:11:43.806Z,24.60
2018-05-27T18:14:11.311Z,24.40
2018-05-27T18:16:38.777Z,24.20
2018-05-27T18:19:06.565Z,24.20
2018-05-27T18:21:34.973Z,24.00
2018-05-27T18:24:02.536Z,24.00
2018-05-27T18:26:30.250Z,23.90
2018-05-27T18:29:17.968Z,23.80
2018-05-27T18:31:45.509Z,23.70
2018-05-27T18:34:13.001Z,23.50
2018-05-27T18:36:41.260Z,23.20
2018-05-27T18:39:08.768Z,23.20
2018-05-27T18:41:36.299Z,23.10
2018-05-27T18:44:04.564Z,22.90
2018-05-27T18:46:32.033Z,22.90
2018-05-27T18:49:00.270Z,22.70
2018-05-27T18:51:30.828Z,22.70
2018-05-27T18:53:59.379Z,22.60
2018-05-27T18:56:27.916Z,22.50
2018-05-27T18:58:56.463Z,22.40
2018-05-27T19:01:25.115Z,22.30
2018-05-27T19:04:01.604Z,22.20
2018-05-27T19:06:31.000Z,22.10
2018-05-27T19:09:08.941Z,22.00
2018-05-27T19:11:46.789Z,21.90
2018-05-27T19:14:14.702Z,21.70
2018-05-27T19:16:58.120Z,21.60
2018-05-27T19:19:29.715Z,21.40
2018-05-27T19:21:58.559Z,21.20
2018-05-27T19:24:26.955Z,21.10
2018-05-27T19:26:55.280Z,21.00
2018-05-27T19:29:52.691Z,20.80
2018-05-27T19:32:21.153Z,20.80
2018-05-27T19:35:13.975Z,20.70
2018-05-27T19:37:42.638Z,20.60
2018-05-27T19:40:10.235Z,20.40
2018-05-27T19:42:37.771Z,20.30
2018-05-27T19:45:05.239Z,20.20
2018-05-27T19:47:32.688Z,20.00
2018-05-27T19:50:00.161Z,19.80
2018-05-27T19:52:27.638Z,19.80
2018-05-27T19:54:55.108Z,19.70
2018-05-27T19:57:22.580Z,19.60
2018-05-27T19:59:50.800Z,19.40
2018-05-27T20:02:18.231Z,19.30
2018-05-27T20:04:45.684Z,19.30
2018-05-27T20:07:13.120Z,19.20
2018-05-27T20:09:41.339Z,19.10
2018-05-27T20:12:08.790Z,19.00
2018-05-27T20:14:36.248Z,19.00
2018-05-27T20:17:03.695Z,19.00
2018-05-27T20:19:31.150Z,19.00
2018-05-27T20:21:58.588Z,18.90
2018-05-27T20:24:26.803Z,18.70
2018-05-27T20:26:54.254Z,18.70
2018-05-27T20:29:21.700Z,18.70
2018-05-27T20:31:49.131Z,18.60
2018-05-27T20:34:17.346Z,18.50
2018-05-27T20:36:44.792Z,18.50
2018-05-27T20:39:12.246Z,18.40
2018-05-27T20:41:39.684Z,18.30
2018-05-27T20:44:07.890Z,18.30
2018-05-27T20:46:36.095Z,18.30
2018-05-27T20:49:03.547Z,18.30
2018-05-27T20:51:30.986Z,18.20
2018-05-27T20:53:58.439Z,18.10
2018-05-27T20:56:25.890Z,18.00
2018-05-27T20:58:53.340Z,18.00
2018-05-27T21:01:20.775Z,18.00
2018-05-27T21:03:48.223Z,17.90
2018-05-27T21:06:16.431Z,17.80
2018-05-27T21:08:43.886Z,17.80
2018-05-27T21:11:11.335Z,17.70
2018-05-27T21:13:38.780Z,17.70
2018-05-27T21:16:06.220Z,17.60
2018-05-27T21:18:34.431Z,17.50
2018-05-27T21:21:01.870Z,17.50
2018-05-27T21:23:29.311Z,17.40
2018-05-27T21:25:57.528Z,17.20
2018-05-27T21:28:24.972Z,17.20
2018-05-27T21:30:52.433Z,17.10
2018-05-27T21:33:19.870Z,17.10
2018-05-27T21:35:47.319Z,17.00
2018-05-27T21:38:15.523Z,16.90
2018-05-27T21:40:42.973Z,16.90
2018-05-27T21:43:10.407Z,16.80
2018-05-27T21:45:37.850Z,16.70
2018-05-27T21:48:06.063Z,16.60
2018-05-27T21:50:33.522Z,16.60
2018-05-27T21:53:00.959Z,16.70
2018-05-27T21:55:28.402Z,16.80
2018-05-27T21:57:56.605Z,16.70
2018-05-27T22:00:24.047Z,16.70
2018-05-27T22:02:51.490Z,16.60
2018-05-27T22:05:19.712Z,16.60
2018-05-27T22:07:47.153Z,16.60
2018-05-27T22:10:14.603Z,16.60
2018-05-27T22:12:42.038Z,16.60
2018-05-27T22:15:10.250Z,16.50
2018-05-27T22:17:37.695Z,16.50
2018-05-27T22:20:05.144Z,16.40
2018-05-27T22:22:32.575Z,16.40
2018-05-27T22:25:00.795Z,16.30
2018-05-27T22:27:28.240Z,16.30
2018-05-27T22:29:55.682Z,16.20
2018-05-27T22:32:23.127Z,16.20
2018-05-27T22:34:51.339Z,16.10
2018-05-27T22:37:18.785Z,16.10
2018-05-27T22:39:46.231Z,16.10
2018-05-27T22:42:13.671Z,16.00
2018-05-27T22:44:41.884Z,16.10
2018-05-27T22:47:09.315Z,16.00
2018-05-27T22:49:36.765Z,16.00
2018-05-27T22:52:04.976Z,16.10
2018-05-27T22:54:32.423Z,16.10
2018-05-27T22:56:59.854Z,16.10
2018-05-27T22:59:27.302Z,16.10
2018-05-27T23:01:55.515Z,16.00
2018-05-27T23:04:22.963Z,16.00
2018-05-27T23:06:50.407Z,16.00
2018-05-27T23:09:17.864Z,16.00
2018-05-27T23:11:45.302Z,16.00
2018-05-27T23:14:13.515Z,15.90
2018-05-27T23:16:40.963Z,15.90
2018-05-27T23:19:08.427Z,15.90
2018-05-27T23:21:35.878Z,16.00
2018-05-27T23:24:03.322Z,15.90
2018-05-27T23:26:30.765Z,15.90
2018-05-27T23:28:58.974Z,15.80
2018-05-27T23:31:26.427Z,15.80
2018-05-27T23:33:53.866Z,15.80
2018-05-27T23:36:21.319Z,15.80
2018-05-27T23:38:48.758Z,15.90
2018-05-27T23:41:16.972Z,15.70
2018-05-27T23:43:44.415Z,15.70
2018-05-27T23:46:11.868Z,15.60
2018-05-27T23:48:39.315Z,15.60
2018-05-27T23:51:06.762Z,15.50
2018-05-27T23:53:34.971Z,15.50
2018-05-27T23:56:02.428Z,15.50
2018-05-27T23:58:29.866Z,15.50
